sensor_id;sensor_type;location;lat;lon;timestamp;P1;durP1;ratioP1;P2;durP2;ratioP2
38591;SDS011;24356;48.460;11.450;2023-03-19T00:01:50;12.13;;;6.35;;
38591;SDS011;24356;48.460;11.450;2023-03-19T00:04:16;15.00;;;7.00;;
38591;SDS011;24356;48.460;11.450;2023-03-19T00:06:42;11.75;;;6.35;;
38591;SDS011;24356;48.460;11.450;2023-03-19T00:09:08;13.35;;;6.78;;
38591;SDS011;24356;48.460;11.450;2023-03-19T00:11:34;12.38;;;6.88;;
38591;SDS011;24356;48.460;11.450;2023-03-19T00:14:00;13.65;;;6.75;;
38591;SDS011;24356;48.460;11.450;2023-03-19T00:16:25;16.02;;;7.28;;
38591;SDS011;24356;48.460;11.450;2023-03-19T00:18:51;14.15;;;6.45;;
38591;SDS011;24356;48.460;11.450;2023-03-19T00:21:17;17.77;;;8.32;;
38591;SDS011;24356;48.460;11.450;2023-03-19T00:23:43;15.13;;;7.35;;
38591;SDS011;24356;48.460;11.450;2023-03-19T00:26:08;14.63;;;7.30;;
38591;SDS011;24356;48.460;11.450;2023-03-19T00:28:34;15.70;;;6.57;;
38591;SDS011;24356;48.460;11.450;2023-03-19T00:31:07;14.70;;;7.63;;
38591;SDS011;24356;48.460;11.450;2023-03-19T00:33:34;14.97;;;7.17;;
38591;SDS011;24356;48.460;11.450;2023-03-19T00:35:59;16.77;;;6.53;;
38591;SDS011;24356;48.460;11.450;2023-03-19T00:38:25;12.00;;;6.38;;
38591;SDS011;24356;48.460;11.450;2023-03-19T00:40:51;11.77;;;6.78;;
38591;SDS011;24356;48.460;11.450;2023-03-19T00:43:17;12.10;;;5.80;;
38591;SDS011;24356;48.460;11.450;2023-03-19T00:45:42;13.30;;;6.40;;
38591;SDS011;24356;48.460;11.450;2023-03-19T00:48:08;12.13;;;6.35;;
38591;SDS011;24356;48.460;11.450;2023-03-19T00:50:33;15.35;;;7.07;;
38591;SDS011;24356;48.460;11.450;2023-03-19T00:52:59;16.92;;;6.45;;
38591;SDS011;24356;48.460;11.450;2023-03-19T00:55:25;9.55;;;5.15;;
38591;SDS011;24356;48.460;11.450;2023-03-19T00:57:52;10.55;;;5.95;;
38591;SDS011;24356;48.460;11.450;2023-03-19T01:00:20;13.18;;;6.65;;
38591;SDS011;24356;48.460;11.450;2023-03-19T01:02:46;11.68;;;6.00;;
38591;SDS011;24356;48.460;11.450;2023-03-19T01:05:12;11.90;;;6.72;;
38591;SDS011;24356;48.460;11.450;2023-03-19T01:07:37;12.05;;;6.82;;
38591;SDS011;24356;48.460;11.450;2023-03-19T01:10:03;15.00;;;6.53;;
38591;SDS011;24356;48.460;11.450;2023-03-19T01:12:30;17.23;;;6.13;;
38591;SDS011;24356;48.460;11.450;2023-03-19T01:14:56;10.93;;;5.32;;
38591;SDS011;24356;48.460;11.450;2023-03-19T01:17:21;14.73;;;7.78;;
38591;SDS011;24356;48.460;11.450;2023-03-19T01:19:47;14.43;;;7.30;;
38591;SDS011;24356;48.460;11.450;2023-03-19T01:22:13;12.88;;;6.13;;
38591;SDS011;24356;48.460;11.450;2023-03-19T01:24:40;11.18;;;6.25;;
38591;SDS011;24356;48.460;11.450;2023-03-19T01:27:06;11.43;;;6.10;;
38591;SDS011;24356;48.460;11.450;2023-03-19T01:29:33;10.55;;;5.30;;
38591;SDS011;24356;48.460;11.450;2023-03-19T01:31:59;13.30;;;6.93;;
38591;SDS011;24356;48.460;11.450;2023-03-19T01:34:26;14.90;;;7.10;;
38591;SDS011;24356;48.460;11.450;2023-03-19T01:36:52;12.38;;;6.05;;
38591;SDS011;24356;48.460;11.450;2023-03-19T01:39:17;14.60;;;5.85;;
38591;SDS011;24356;48.460;11.450;2023-03-19T01:41:43;11.90;;;6.68;;
38591;SDS011;24356;48.460;11.450;2023-03-19T01:44:24;10.35;;;5.47;;
38591;SDS011;24356;48.460;11.450;2023-03-19T01:46:54;10.48;;;5.68;;
38591;SDS011;24356;48.460;11.450;2023-03-19T01:49:22;10.90;;;5.90;;
38591;SDS011;24356;48.460;11.450;2023-03-19T01:51:50;12.30;;;6.25;;
38591;SDS011;24356;48.460;11.450;2023-03-19T01:54:17;14.65;;;7.00;;
38591;SDS011;24356;48.460;11.450;2023-03-19T01:56:45;9.98;;;5.95;;
38591;SDS011;24356;48.460;11.450;2023-03-19T01:59:58;11.95;;;6.13;;
38591;SDS011;24356;48.460;11.450;2023-03-19T02:04:42;12.25;;;6.45;;
38591;SDS011;24356;48.460;11.450;2023-03-19T02:07:10;12.98;;;6.60;;
38591;SDS011;24356;48.460;11.450;2023-03-19T02:09:37;13.98;;;7.18;;
38591;SDS011;24356;48.460;11.450;2023-03-19T02:12:05;15.68;;;7.45;;
38591;SDS011;24356;48.460;11.450;2023-03-19T02:14:32;13.30;;;7.57;;
38591;SDS011;24356;48.460;11.450;2023-03-19T02:16:58;13.20;;;7.28;;
38591;SDS011;24356;48.460;11.450;2023-03-19T02:19:30;12.77;;;5.55;;
38591;SDS011;24356;48.460;11.450;2023-03-19T02:22:16;12.68;;;5.65;;
38591;SDS011;24356;48.460;11.450;2023-03-19T02:24:50;12.40;;;7.00;;
38591;SDS011;24356;48.460;11.450;2023-03-19T02:27:21;10.23;;;5.70;;
38591;SDS011;24356;48.460;11.450;2023-03-19T02:29:47;11.90;;;5.63;;
38591;SDS011;24356;48.460;11.450;2023-03-19T02:32:12;13.57;;;7.38;;
38591;SDS011;24356;48.460;11.450;2023-03-19T02:34:39;13.90;;;7.20;;
38591;SDS011;24356;48.460;11.450;2023-03-19T02:37:11;10.77;;;4.82;;
38591;SDS011;24356;48.460;11.450;2023-03-19T02:42:12;12.85;;;6.30;;
38591;SDS011;24356;48.460;11.450;2023-03-19T02:44:40;9.90;;;5.13;;
38591;SDS011;24356;48.460;11.450;2023-03-19T02:47:06;9.27;;;5.28;;
38591;SDS011;24356;48.460;11.450;2023-03-19T02:49:33;10.13;;;5.80;;
38591;SDS011;24356;48.460;11.450;2023-03-19T02:51:59;13.68;;;5.93;;
38591;SDS011;24356;48.460;11.450;2023-03-19T02:54:25;10.55;;;6.07;;
38591;SDS011;24356;48.460;11.450;2023-03-19T02:56:51;11.35;;;6.00;;
38591;SDS011;24356;48.460;11.450;2023-03-19T02:59:17;12.77;;;6.03;;
38591;SDS011;24356;48.460;11.450;2023-03-19T03:01:43;14.25;;;7.18;;
38591;SDS011;24356;48.460;11.450;2023-03-19T03:04:08;13.93;;;6.45;;
38591;SDS011;24356;48.460;11.450;2023-03-19T03:06:34;12.35;;;6.78;;
38591;SDS011;24356;48.460;11.450;2023-03-19T03:09:00;12.45;;;6.30;;
38591;SDS011;24356;48.460;11.450;2023-03-19T03:11:26;11.27;;;7.03;;
38591;SDS011;24356;48.460;11.450;2023-03-19T03:13:51;14.38;;;6.07;;
38591;SDS011;24356;48.460;11.450;2023-03-19T03:16:17;13.07;;;6.82;;
38591;SDS011;24356;48.460;11.450;2023-03-19T03:18:42;13.57;;;6.45;;
38591;SDS011;24356;48.460;11.450;2023-03-19T03:21:09;13.65;;;5.80;;
38591;SDS011;24356;48.460;11.450;2023-03-19T03:23:35;11.27;;;5.32;;
38591;SDS011;24356;48.460;11.450;2023-03-19T03:26:01;12.60;;;7.00;;
38591;SDS011;24356;48.460;11.450;2023-03-19T03:28:27;11.38;;;5.97;;
38591;SDS011;24356;48.460;11.450;2023-03-19T03:30:59;12.40;;;6.15;;
38591;SDS011;24356;48.460;11.450;2023-03-19T03:33:26;19.25;;;9.38;;
38591;SDS011;24356;48.460;11.450;2023-03-19T03:35:52;14.65;;;7.80;;
38591;SDS011;24356;48.460;11.450;2023-03-19T03:38:17;12.93;;;6.05;;
38591;SDS011;24356;48.460;11.450;2023-03-19T03:40:43;11.35;;;5.45;;
38591;SDS011;24356;48.460;11.450;2023-03-19T03:43:09;14.60;;;6.00;;
38591;SDS011;24356;48.460;11.450;2023-03-19T03:45:34;15.20;;;6.97;;
38591;SDS011;24356;48.460;11.450;2023-03-19T03:48:00;14.50;;;7.60;;
38591;SDS011;24356;48.460;11.450;2023-03-19T03:50:26;10.98;;;5.47;;
38591;SDS011;24356;48.460;11.450;2023-03-19T03:52:55;17.45;;;7.85;;
38591;SDS011;24356;48.460;11.450;2023-03-19T03:55:20;11.88;;;6.20;;
38591;SDS011;24356;48.460;11.450;2023-03-19T03:57:46;14.68;;;7.82;;
38591;SDS011;24356;48.460;11.450;2023-03-19T04:00:11;17.77;;;9.15;;
38591;SDS011;24356;48.460;11.450;2023-03-19T04:02:38;10.73;;;5.80;;
38591;SDS011;24356;48.460;11.450;2023-03-19T04:05:03;13.40;;;7.15;;
38591;SDS011;24356;48.460;11.450;2023-03-19T04:07:30;12.30;;;6.63;;
38591;SDS011;24356;48.460;11.450;2023-03-19T04:09:56;9.98;;;6.20;;
38591;SDS011;24356;48.460;11.450;2023-03-19T04:12:23;12.27;;;6.13;;
38591;SDS011;24356;48.460;11.450;2023-03-19T04:14:48;11.02;;;6.00;;
38591;SDS011;24356;48.460;11.450;2023-03-19T04:17:16;11.65;;;5.68;;
38591;SDS011;24356;48.460;11.450;2023-03-19T04:19:42;17.48;;;9.15;;
38591;SDS011;24356;48.460;11.450;2023-03-19T04:22:08;13.40;;;6.68;;
38591;SDS011;24356;48.460;11.450;2023-03-19T04:24:34;14.73;;;7.45;;
38591;SDS011;24356;48.460;11.450;2023-03-19T04:27:00;17.10;;;8.43;;
38591;SDS011;24356;48.460;11.450;2023-03-19T04:29:26;14.75;;;7.00;;
38591;SDS011;24356;48.460;11.450;2023-03-19T04:31:52;10.98;;;5.28;;
38591;SDS011;24356;48.460;11.450;2023-03-19T04:34:19;14.50;;;7.95;;
38591;SDS011;24356;48.460;11.450;2023-03-19T04:36:44;14.50;;;7.40;;
38591;SDS011;24356;48.460;11.450;2023-03-19T04:39:11;17.42;;;8.48;;
38591;SDS011;24356;48.460;11.450;2023-03-19T04:41:36;17.63;;;8.57;;
38591;SDS011;24356;48.460;11.450;2023-03-19T04:44:02;21.38;;;11.02;;
38591;SDS011;24356;48.460;11.450;2023-03-19T04:46:28;22.75;;;10.73;;
38591;SDS011;24356;48.460;11.450;2023-03-19T04:48:54;15.10;;;8.52;;
38591;SDS011;24356;48.460;11.450;2023-03-19T04:51:20;23.15;;;10.13;;
38591;SDS011;24356;48.460;11.450;2023-03-19T04:53:46;20.92;;;9.75;;
38591;SDS011;24356;48.460;11.450;2023-03-19T04:56:11;16.20;;;8.57;;
38591;SDS011;24356;48.460;11.450;2023-03-19T04:58:40;22.23;;;11.43;;
38591;SDS011;24356;48.460;11.450;2023-03-19T05:01:06;25.33;;;11.60;;
38591;SDS011;24356;48.460;11.450;2023-03-19T05:03:32;24.67;;;11.10;;
38591;SDS011;24356;48.460;11.450;2023-03-19T05:05:57;20.70;;;11.35;;
38591;SDS011;24356;48.460;11.450;2023-03-19T05:08:23;22.42;;;12.45;;
38591;SDS011;24356;48.460;11.450;2023-03-19T05:10:48;28.85;;;12.90;;
38591;SDS011;24356;48.460;11.450;2023-03-19T05:13:16;21.33;;;12.35;;
38591;SDS011;24356;48.460;11.450;2023-03-19T05:15:42;25.55;;;13.63;;
38591;SDS011;24356;48.460;11.450;2023-03-19T05:18:09;24.75;;;12.02;;
38591;SDS011;24356;48.460;11.450;2023-03-19T05:20:36;22.00;;;11.98;;
38591;SDS011;24356;48.460;11.450;2023-03-19T05:23:02;28.80;;;12.32;;
38591;SDS011;24356;48.460;11.450;2023-03-19T05:25:28;28.52;;;13.00;;
38591;SDS011;24356;48.460;11.450;2023-03-19T05:27:54;26.48;;;12.52;;
38591;SDS011;24356;48.460;11.450;2023-03-19T05:30:20;26.48;;;12.73;;
38591;SDS011;24356;48.460;11.450;2023-03-19T05:32:46;26.35;;;13.05;;
38591;SDS011;24356;48.460;11.450;2023-03-19T05:35:12;26.42;;;12.48;;
38591;SDS011;24356;48.460;11.450;2023-03-19T05:37:38;25.73;;;11.73;;
38591;SDS011;24356;48.460;11.450;2023-03-19T05:40:04;43.38;;;18.52;;
38591;SDS011;24356;48.460;11.450;2023-03-19T05:42:30;51.35;;;21.15;;
38591;SDS011;24356;48.460;11.450;2023-03-19T05:44:55;18.73;;;10.73;;
38591;SDS011;24356;48.460;11.450;2023-03-19T05:47:21;21.70;;;10.93;;
38591;SDS011;24356;48.460;11.450;2023-03-19T05:49:48;23.67;;;12.30;;
38591;SDS011;24356;48.460;11.450;2023-03-19T05:52:15;22.02;;;10.93;;
38591;SDS011;24356;48.460;11.450;2023-03-19T05:54:42;27.38;;;13.45;;
38591;SDS011;24356;48.460;11.450;2023-03-19T05:57:07;34.08;;;17.40;;
38591;SDS011;24356;48.460;11.450;2023-03-19T05:59:33;41.55;;;19.95;;
38591;SDS011;24356;48.460;11.450;2023-03-19T06:01:59;36.47;;;18.70;;
38591;SDS011;24356;48.460;11.450;2023-03-19T06:04:26;38.08;;;19.55;;
38591;SDS011;24356;48.460;11.450;2023-03-19T06:06:52;40.55;;;19.33;;
38591;SDS011;24356;48.460;11.450;2023-03-19T06:09:18;35.95;;;17.73;;
38591;SDS011;24356;48.460;11.450;2023-03-19T06:11:44;39.20;;;18.95;;
38591;SDS011;24356;48.460;11.450;2023-03-19T06:14:09;39.20;;;19.45;;
38591;SDS011;24356;48.460;11.450;2023-03-19T06:16:35;37.33;;;19.90;;
38591;SDS011;24356;48.460;11.450;2023-03-19T06:19:01;38.95;;;19.83;;
38591;SDS011;24356;48.460;11.450;2023-03-19T06:21:29;45.10;;;20.00;;
38591;SDS011;24356;48.460;11.450;2023-03-19T06:23:55;38.75;;;18.15;;
38591;SDS011;24356;48.460;11.450;2023-03-19T06:26:21;36.28;;;17.45;;
38591;SDS011;24356;48.460;11.450;2023-03-19T06:28:47;35.03;;;16.60;;
38591;SDS011;24356;48.460;11.450;2023-03-19T06:31:14;35.55;;;16.05;;
38591;SDS011;24356;48.460;11.450;2023-03-19T06:33:40;31.48;;;16.10;;
38591;SDS011;24356;48.460;11.450;2023-03-19T06:36:06;27.05;;;12.65;;
38591;SDS011;24356;48.460;11.450;2023-03-19T06:38:32;27.70;;;14.40;;
38591;SDS011;24356;48.460;11.450;2023-03-19T06:40:58;28.33;;;12.27;;
38591;SDS011;24356;48.460;11.450;2023-03-19T06:43:24;27.20;;;12.90;;
38591;SDS011;24356;48.460;11.450;2023-03-19T06:45:49;27.75;;;13.25;;
38591;SDS011;24356;48.460;11.450;2023-03-19T06:48:15;28.92;;;12.95;;
38591;SDS011;24356;48.460;11.450;2023-03-19T06:50:41;26.33;;;13.30;;
38591;SDS011;24356;48.460;11.450;2023-03-19T06:53:06;22.15;;;10.57;;
38591;SDS011;24356;48.460;11.450;2023-03-19T06:55:32;27.63;;;14.45;;
38591;SDS011;24356;48.460;11.450;2023-03-19T06:57:59;24.83;;;12.13;;
38591;SDS011;24356;48.460;11.450;2023-03-19T07:00:26;25.30;;;13.10;;
38591;SDS011;24356;48.460;11.450;2023-03-19T07:02:52;26.70;;;12.23;;
38591;SDS011;24356;48.460;11.450;2023-03-19T07:05:17;20.10;;;10.20;;
38591;SDS011;24356;48.460;11.450;2023-03-19T07:07:43;25.85;;;11.43;;
38591;SDS011;24356;48.460;11.450;2023-03-19T07:10:09;19.35;;;10.32;;
38591;SDS011;24356;48.460;11.450;2023-03-19T07:12:35;22.15;;;10.30;;
38591;SDS011;24356;48.460;11.450;2023-03-19T07:15:00;22.48;;;11.15;;
38591;SDS011;24356;48.460;11.450;2023-03-19T07:17:26;21.48;;;11.05;;
38591;SDS011;24356;48.460;11.450;2023-03-19T07:19:51;22.20;;;10.30;;
38591;SDS011;24356;48.460;11.450;2023-03-19T07:22:17;19.85;;;9.02;;
38591;SDS011;24356;48.460;11.450;2023-03-19T07:24:43;19.60;;;8.93;;
38591;SDS011;24356;48.460;11.450;2023-03-19T07:27:08;15.10;;;7.97;;
38591;SDS011;24356;48.460;11.450;2023-03-19T07:29:34;16.33;;;8.10;;
38591;SDS011;24356;48.460;11.450;2023-03-19T07:32:00;15.38;;;8.15;;
38591;SDS011;24356;48.460;11.450;2023-03-19T07:34:26;14.45;;;7.72;;
38591;SDS011;24356;48.460;11.450;2023-03-19T07:36:51;11.13;;;6.35;;
38591;SDS011;24356;48.460;11.450;2023-03-19T07:39:17;18.33;;;7.55;;
38591;SDS011;24356;48.460;11.450;2023-03-19T07:41:45;13.93;;;6.53;;
38591;SDS011;24356;48.460;11.450;2023-03-19T07:44:12;11.82;;;6.40;;
38591;SDS011;24356;48.460;11.450;2023-03-19T07:46:38;9.40;;;5.75;;
38591;SDS011;24356;48.460;11.450;2023-03-19T07:49:04;11.35;;;6.60;;
38591;SDS011;24356;48.460;11.450;2023-03-19T07:51:30;10.15;;;5.13;;
38591;SDS011;24356;48.460;11.450;2023-03-19T07:53:56;11.35;;;5.45;;
38591;SDS011;24356;48.460;11.450;2023-03-19T07:56:21;10.65;;;5.30;;
38591;SDS011;24356;48.460;11.450;2023-03-19T07:58:47;8.23;;;4.65;;
38591;SDS011;24356;48.460;11.450;2023-03-19T08:01:14;8.43;;;4.68;;
38591;SDS011;24356;48.460;11.450;2023-03-19T08:03:39;8.00;;;4.15;;
38591;SDS011;24356;48.460;11.450;2023-03-19T08:06:05;8.15;;;4.47;;
38591;SDS011;24356;48.460;11.450;2023-03-19T08:08:30;8.85;;;4.57;;
38591;SDS011;24356;48.460;11.450;2023-03-19T08:10:58;8.35;;;4.78;;
38591;SDS011;24356;48.460;11.450;2023-03-19T08:13:24;11.48;;;4.90;;
38591;SDS011;24356;48.460;11.450;2023-03-19T08:15:50;22.58;;;9.07;;
38591;SDS011;24356;48.460;11.450;2023-03-19T08:18:17;22.15;;;9.63;;
38591;SDS011;24356;48.460;11.450;2023-03-19T08:20:43;15.43;;;6.85;;
38591;SDS011;24356;48.460;11.450;2023-03-19T08:23:10;12.77;;;6.57;;
38591;SDS011;24356;48.460;11.450;2023-03-19T08:25:36;10.77;;;5.82;;
38591;SDS011;24356;48.460;11.450;2023-03-19T08:28:01;11.25;;;5.75;;
38591;SDS011;24356;48.460;11.450;2023-03-19T08:30:27;8.20;;;5.15;;
38591;SDS011;24356;48.460;11.450;2023-03-19T08:32:53;9.57;;;4.75;;
38591;SDS011;24356;48.460;11.450;2023-03-19T08:35:19;7.63;;;4.43;;
38591;SDS011;24356;48.460;11.450;2023-03-19T08:37:45;8.20;;;4.20;;
38591;SDS011;24356;48.460;11.450;2023-03-19T08:40:11;11.13;;;3.83;;
38591;SDS011;24356;48.460;11.450;2023-03-19T08:42:36;8.82;;;3.67;;
38591;SDS011;24356;48.460;11.450;2023-03-19T08:45:06;8.95;;;3.92;;
38591;SDS011;24356;48.460;11.450;2023-03-19T08:47:33;7.18;;;4.15;;
38591;SDS011;24356;48.460;11.450;2023-03-19T08:49:58;6.45;;;3.80;;
38591;SDS011;24356;48.460;11.450;2023-03-19T08:52:24;7.07;;;4.20;;
38591;SDS011;24356;48.460;11.450;2023-03-19T08:54:50;5.45;;;3.85;;
38591;SDS011;24356;48.460;11.450;2023-03-19T08:57:15;7.65;;;3.47;;
38591;SDS011;24356;48.460;11.450;2023-03-19T08:59:41;7.43;;;3.50;;
38591;SDS011;24356;48.460;11.450;2023-03-19T09:02:08;4.90;;;3.15;;
38591;SDS011;24356;48.460;11.450;2023-03-19T09:04:35;7.40;;;3.70;;
38591;SDS011;24356;48.460;11.450;2023-03-19T09:07:03;7.22;;;3.40;;
38591;SDS011;24356;48.460;11.450;2023-03-19T09:09:28;5.55;;;3.40;;
38591;SDS011;24356;48.460;11.450;2023-03-19T09:11:54;5.60;;;3.53;;
38591;SDS011;24356;48.460;11.450;2023-03-19T09:14:19;4.72;;;3.40;;
38591;SDS011;24356;48.460;11.450;2023-03-19T09:16:46;5.78;;;3.40;;
38591;SDS011;24356;48.460;11.450;2023-03-19T09:19:13;4.65;;;2.95;;
38591;SDS011;24356;48.460;11.450;2023-03-19T09:21:39;5.28;;;3.10;;
38591;SDS011;24356;48.460;11.450;2023-03-19T09:24:05;6.13;;;2.72;;
38591;SDS011;24356;48.460;11.450;2023-03-19T09:26:33;4.78;;;2.88;;
38591;SDS011;24356;48.460;11.450;2023-03-19T09:28:58;4.38;;;2.88;;
38591;SDS011;24356;48.460;11.450;2023-03-19T09:31:24;7.60;;;2.90;;
38591;SDS011;24356;48.460;11.450;2023-03-19T09:33:50;4.70;;;2.97;;
38591;SDS011;24356;48.460;11.450;2023-03-19T09:36:16;5.80;;;2.67;;
38591;SDS011;24356;48.460;11.450;2023-03-19T09:38:41;4.80;;;2.72;;
38591;SDS011;24356;48.460;11.450;2023-03-19T09:41:09;5.03;;;2.65;;
38591;SDS011;24356;48.460;11.450;2023-03-19T09:46:24;5.10;;;3.25;;
38591;SDS011;24356;48.460;11.450;2023-03-19T09:51:27;5.53;;;2.80;;
38591;SDS011;24356;48.460;11.450;2023-03-19T09:54:03;5.82;;;2.50;;
38591;SDS011;24356;48.460;11.450;2023-03-19T09:56:49;4.10;;;2.58;;
38591;SDS011;24356;48.460;11.450;2023-03-19T09:59:15;4.03;;;2.45;;
38591;SDS011;24356;48.460;11.450;2023-03-19T10:01:42;5.22;;;2.70;;
38591;SDS011;24356;48.460;11.450;2023-03-19T10:06:52;6.10;;;3.30;;
38591;SDS011;24356;48.460;11.450;2023-03-19T10:09:56;8.45;;;2.30;;
38591;SDS011;24356;48.460;11.450;2023-03-19T10:12:27;4.95;;;2.28;;
38591;SDS011;24356;48.460;11.450;2023-03-19T10:20:29;4.82;;;2.20;;
38591;SDS011;24356;48.460;11.450;2023-03-19T10:23:21;3.47;;;2.25;;
38591;SDS011;24356;48.460;11.450;2023-03-19T10:26:16;4.63;;;1.92;;
38591;SDS011;24356;48.460;11.450;2023-03-19T10:28:45;3.08;;;1.88;;
38591;SDS011;24356;48.460;11.450;2023-03-19T10:31:39;3.05;;;1.75;;
38591;SDS011;24356;48.460;11.450;2023-03-19T10:34:13;2.72;;;1.90;;
38591;SDS011;24356;48.460;11.450;2023-03-19T10:36:57;5.95;;;2.42;;
38591;SDS011;24356;48.460;11.450;2023-03-19T10:39:45;4.05;;;1.90;;
38591;SDS011;24356;48.460;11.450;2023-03-19T10:47:50;3.58;;;1.88;;
38591;SDS011;24356;48.460;11.450;2023-03-19T10:50:18;3.67;;;1.98;;
38591;SDS011;24356;48.460;11.450;2023-03-19T10:52:51;4.22;;;2.10;;
38591;SDS011;24356;48.460;11.450;2023-03-19T10:55:25;3.58;;;1.85;;
38591;SDS011;24356;48.460;11.450;2023-03-19T10:58:17;3.40;;;1.77;;
38591;SDS011;24356;48.460;11.450;2023-03-19T11:00:46;2.92;;;1.77;;
38591;SDS011;24356;48.460;11.450;2023-03-19T11:03:26;3.42;;;1.70;;
38591;SDS011;24356;48.460;11.450;2023-03-19T11:09:02;3.88;;;1.90;;
38591;SDS011;24356;48.460;11.450;2023-03-19T11:11:49;4.25;;;1.65;;
38591;SDS011;24356;48.460;11.450;2023-03-19T11:14:24;3.33;;;1.80;;
38591;SDS011;24356;48.460;11.450;2023-03-19T11:19:51;1.88;;;1.52;;
38591;SDS011;24356;48.460;11.450;2023-03-19T11:25:06;4.43;;;2.00;;
38591;SDS011;24356;48.460;11.450;2023-03-19T11:28:02;7.03;;;2.00;;
38591;SDS011;24356;48.460;11.450;2023-03-19T11:30:50;2.92;;;1.60;;
38591;SDS011;24356;48.460;11.450;2023-03-19T11:36:11;2.53;;;1.67;;
38591;SDS011;24356;48.460;11.450;2023-03-19T11:38:41;3.42;;;1.77;;
38591;SDS011;24356;48.460;11.450;2023-03-19T11:41:15;1.83;;;1.45;;
38591;SDS011;24356;48.460;11.450;2023-03-19T11:43:52;3.55;;;1.80;;
38591;SDS011;24356;48.460;11.450;2023-03-19T11:46:33;4.53;;;1.52;;
38591;SDS011;24356;48.460;11.450;2023-03-19T11:51:58;4.05;;;1.40;;
38591;SDS011;24356;48.460;11.450;2023-03-19T11:54:43;4.60;;;1.58;;
38591;SDS011;24356;48.460;11.450;2023-03-19T11:57:27;4.15;;;1.70;;
38591;SDS011;24356;48.460;11.450;2023-03-19T12:00:27;2.95;;;1.73;;
38591;SDS011;24356;48.460;11.450;2023-03-19T12:03:15;3.30;;;1.83;;
38591;SDS011;24356;48.460;11.450;2023-03-19T12:06:04;3.58;;;1.83;;
38591;SDS011;24356;48.460;11.450;2023-03-19T12:08:58;3.13;;;1.67;;
38591;SDS011;24356;48.460;11.450;2023-03-19T12:20:12;2.90;;;1.95;;
38591;SDS011;24356;48.460;11.450;2023-03-19T12:28:32;3.60;;;2.00;;
38591;SDS011;24356;48.460;11.450;2023-03-19T12:42:26;2.88;;;2.10;;
38591;SDS011;24356;48.460;11.450;2023-03-19T12:44:56;3.45;;;1.90;;
38591;SDS011;24356;48.460;11.450;2023-03-19T12:47:25;3.75;;;2.00;;
38591;SDS011;24356;48.460;11.450;2023-03-19T12:49:58;4.35;;;2.00;;
38591;SDS011;24356;48.460;11.450;2023-03-19T12:52:37;5.13;;;2.30;;
38591;SDS011;24356;48.460;11.450;2023-03-19T12:58:15;4.13;;;2.30;;
38591;SDS011;24356;48.460;11.450;2023-03-19T13:00:55;3.88;;;2.50;;
38591;SDS011;24356;48.460;11.450;2023-03-19T13:06:23;4.78;;;2.28;;
38591;SDS011;24356;48.460;11.450;2023-03-19T13:17:29;5.07;;;2.25;;
38591;SDS011;24356;48.460;11.450;2023-03-19T13:20:04;6.07;;;2.38;;
38591;SDS011;24356;48.460;11.450;2023-03-19T13:22:54;4.70;;;2.58;;
38591;SDS011;24356;48.460;11.450;2023-03-19T13:25:24;4.70;;;1.90;;
38591;SDS011;24356;48.460;11.450;2023-03-19T13:27:56;3.88;;;2.10;;
38591;SDS011;24356;48.460;11.450;2023-03-19T13:30:22;4.72;;;2.25;;
38591;SDS011;24356;48.460;11.450;2023-03-19T13:32:51;3.65;;;2.10;;
38591;SDS011;24356;48.460;11.450;2023-03-19T13:38:27;2.72;;;2.20;;
38591;SDS011;24356;48.460;11.450;2023-03-19T13:41:04;3.42;;;2.05;;
38591;SDS011;24356;48.460;11.450;2023-03-19T13:43:53;2.45;;;2.05;;
38591;SDS011;24356;48.460;11.450;2023-03-19T13:46:37;5.13;;;2.10;;
38591;SDS011;24356;48.460;11.450;2023-03-19T13:49:09;4.45;;;2.40;;
38591;SDS011;24356;48.460;11.450;2023-03-19T13:51:56;4.03;;;2.10;;
38591;SDS011;24356;48.460;11.450;2023-03-19T13:54:34;5.90;;;1.98;;
38591;SDS011;24356;48.460;11.450;2023-03-19T13:59:41;4.20;;;2.20;;
38591;SDS011;24356;48.460;11.450;2023-03-19T14:07:25;2.95;;;2.03;;
38591;SDS011;24356;48.460;11.450;2023-03-19T14:10:07;4.15;;;2.30;;
38591;SDS011;24356;48.460;11.450;2023-03-19T14:12:44;3.85;;;2.35;;
38591;SDS011;24356;48.460;11.450;2023-03-19T14:28:22;6.38;;;3.55;;
38591;SDS011;24356;48.460;11.450;2023-03-19T14:31:00;5.57;;;2.55;;
38591;SDS011;24356;48.460;11.450;2023-03-19T14:36:11;3.95;;;2.20;;
38591;SDS011;24356;48.460;11.450;2023-03-19T14:38:48;3.60;;;2.45;;
38591;SDS011;24356;48.460;11.450;2023-03-19T14:41:21;4.45;;;2.83;;
38591;SDS011;24356;48.460;11.450;2023-03-19T14:57:44;5.28;;;2.80;;
38591;SDS011;24356;48.460;11.450;2023-03-19T15:00:16;4.30;;;2.58;;
38591;SDS011;24356;48.460;11.450;2023-03-19T15:02:44;4.13;;;2.75;;
38591;SDS011;24356;48.460;11.450;2023-03-19T15:07:46;4.00;;;2.63;;
38591;SDS011;24356;48.460;11.450;2023-03-19T15:10:21;4.82;;;2.83;;
38591;SDS011;24356;48.460;11.450;2023-03-19T15:15:38;5.75;;;2.92;;
38591;SDS011;24356;48.460;11.450;2023-03-19T15:18:14;11.57;;;3.53;;
38591;SDS011;24356;48.460;11.450;2023-03-19T15:20:44;8.75;;;4.05;;
38591;SDS011;24356;48.460;11.450;2023-03-19T15:23:12;5.35;;;3.33;;
38591;SDS011;24356;48.460;11.450;2023-03-19T15:26:01;6.32;;;3.17;;
38591;SDS011;24356;48.460;11.450;2023-03-19T15:28:29;5.10;;;2.85;;
38591;SDS011;24356;48.460;11.450;2023-03-19T15:31:00;4.05;;;2.60;;
38591;SDS011;24356;48.460;11.450;2023-03-19T15:33:46;6.22;;;3.05;;
38591;SDS011;24356;48.460;11.450;2023-03-19T15:36:16;5.03;;;3.00;;
38591;SDS011;24356;48.460;11.450;2023-03-19T15:38:48;6.05;;;3.33;;
38591;SDS011;24356;48.460;11.450;2023-03-19T15:41:21;6.22;;;3.20;;
38591;SDS011;24356;48.460;11.450;2023-03-19T15:43:49;6.63;;;3.30;;
38591;SDS011;24356;48.460;11.450;2023-03-19T15:46:16;5.35;;;3.00;;
38591;SDS011;24356;48.460;11.450;2023-03-19T15:48:47;5.22;;;3.40;;
38591;SDS011;24356;48.460;11.450;2023-03-19T15:51:27;6.43;;;3.55;;
38591;SDS011;24356;48.460;11.450;2023-03-19T15:53:53;5.75;;;3.58;;
38591;SDS011;24356;48.460;11.450;2023-03-19T15:56:20;5.18;;;3.40;;
38591;SDS011;24356;48.460;11.450;2023-03-19T15:58:48;4.15;;;2.90;;
38591;SDS011;24356;48.460;11.450;2023-03-19T16:01:16;5.65;;;2.90;;
38591;SDS011;24356;48.460;11.450;2023-03-19T16:06:23;4.53;;;2.50;;
38591;SDS011;24356;48.460;11.450;2023-03-19T16:08:50;3.85;;;3.05;;
38591;SDS011;24356;48.460;11.450;2023-03-19T16:11:28;4.53;;;2.90;;
38591;SDS011;24356;48.460;11.450;2023-03-19T16:14:08;4.68;;;3.05;;
38591;SDS011;24356;48.460;11.450;2023-03-19T16:17:13;8.27;;;3.47;;
38591;SDS011;24356;48.460;11.450;2023-03-19T16:19:51;5.28;;;3.25;;
38591;SDS011;24356;48.460;11.450;2023-03-19T16:22:21;10.18;;;4.25;;
38591;SDS011;24356;48.460;11.450;2023-03-19T16:24:49;6.78;;;2.83;;
38591;SDS011;24356;48.460;11.450;2023-03-19T16:27:17;7.03;;;3.40;;
38591;SDS011;24356;48.460;11.450;2023-03-19T16:29:54;5.97;;;3.10;;
38591;SDS011;24356;48.460;11.450;2023-03-19T16:32:23;6.70;;;2.95;;
38591;SDS011;24356;48.460;11.450;2023-03-19T16:34:56;5.88;;;2.88;;
38591;SDS011;24356;48.460;11.450;2023-03-19T16:37:45;6.28;;;3.20;;
38591;SDS011;24356;48.460;11.450;2023-03-19T16:42:50;5.78;;;3.08;;
38591;SDS011;24356;48.460;11.450;2023-03-19T16:45:24;4.72;;;2.70;;
38591;SDS011;24356;48.460;11.450;2023-03-19T16:47:52;7.43;;;2.90;;
38591;SDS011;24356;48.460;11.450;2023-03-19T16:50:20;7.78;;;2.90;;